Time;durP1;ratioP1;P1;durP2;ratioP2;P2;SDS_P1;SDS_P2;PMS_P1;PMS_P2;Temp;Humidity;BMP_temperature;BMP_pressure;BME280_temperature;BME280_humidity;BME280_pressure;Samples;Min_cycle;Max_cycle;Signal;HPM_P1;HPM_P2
2023/09/18 00:00:59;;;;;;;8.77;2.60;;;;;;;21.52;72.51;151429.47;4926866;28;20694;-63
2023/09/18 00:03:26;;;;;;;11.53;2.83;;;;;;;21.63;72.85;151455.81;4923543;28;20270;-62
2023/09/18 00:06:18;;;;;;;8.77;2.73;;;;;;;21.53;73.47;151430.69;4924258;28;20232;-62
2023/09/18 00:08:44;;;;;;;9.37;2.90;;;;;;;21.49;74.27;151421.94;4927686;28;20228;-62
2023/09/18 00:11:11;;;;;;;12.10;3.63;;;;;;;21.41;74.36;151401.91;4927113;28;20233;-63
2023/09/18 00:13:39;;;;;;;8.20;2.90;;;;;;;21.33;75.46;151383.06;4924462;28;20761;-63
2023/09/18 00:16:06;;;;;;;6.60;3.30;;;;;;;21.27;75.66;151368.00;4926880;28;20225;-62
2023/09/18 00:18:33;;;;;;;6.30;3.07;;;;;;;21.25;77.50;151363.00;4924113;28;20249;-62
2023/09/18 00:20:59;;;;;;;8.13;3.73;;;;;;;21.16;78.38;151341.72;4929620;28;20615;-60
2023/09/18 00:23:26;;;;;;;6.80;3.07;;;;;;;21.02;79.67;151307.91;4927074;28;20756;-63
2023/09/18 00:26:18;;;;;;;7.50;3.10;;;;;;;20.87;80.66;151270.28;4930268;28;20236;-63
2023/09/18 00:28:52;;;;;;;8.43;3.60;;;;;;;20.79;81.60;151252.75;4927788;28;20765;-62
2023/09/18 00:31:20;;;;;;;9.57;3.60;;;;;;;20.66;82.47;151220.13;4938937;28;20226;-62
2023/09/18 00:33:48;;;;;;;10.03;4.10;;;;;;;20.64;82.85;151215.09;4928330;29;20241;-62
2023/09/18 00:36:14;;;;;;;6.83;3.20;;;;;;;20.59;84.01;151202.56;4928303;29;20230;-62
2023/09/18 00:38:41;;;;;;;7.40;3.47;;;;;;;20.62;83.88;151210.09;4929072;28;20244;-63
2023/09/18 00:41:07;;;;;;;9.57;3.57;;;;;;;20.53;85.68;151187.53;4927649;29;20227;-63
2023/09/18 00:43:34;;;;;;;12.37;3.87;;;;;;;20.49;86.41;151180.00;4925824;28;20245;-63
2023/09/18 00:46:03;;;;;;;8.43;3.43;;;;;;;20.54;84.69;151190.03;4929340;29;20230;-62
2023/09/18 00:48:30;;;;;;;10.00;3.50;;;;;;;20.60;83.84;151206.34;4939880;28;20231;-62
2023/09/18 00:50:59;;;;;;;8.90;4.13;;;;;;;20.57;85.09;151197.56;4927513;29;20681;-63
2023/09/18 00:53:27;;;;;;;3.97;3.17;;;;;;;20.56;85.50;151195.06;4924057;28;20230;-62
2023/09/18 00:56:01;;;;;;;9.63;2.80;;;;;;;20.50;85.11;151182.53;4942965;28;20288;-62
2023/09/18 00:58:28;;;;;;;8.57;3.27;;;;;;;20.51;85.75;151183.78;4925480;28;20221;-61
2023/09/18 01:01:00;;;;;;;5.73;3.00;;;;;;;20.50;86.19;151181.28;4930250;28;20234;-62
2023/09/18 01:03:28;;;;;;;9.30;2.63;;;;;;;20.51;85.17;151183.78;4940545;28;20228;-62
2023/09/18 01:06:01;;;;;;;8.30;2.90;;;;;;;20.53;84.88;151187.53;4927896;29;20242;-62
2023/09/18 01:08:27;;;;;;;6.80;3.00;;;;;;;20.54;85.43;151191.31;4926283;28;20220;-61
2023/09/18 01:11:07;;;;;;;7.43;3.17;;;;;;;20.53;86.52;151188.81;4943634;28;20242;-61
2023/09/18 01:13:39;;;;;;;8.23;3.27;;;;;;;20.53;86.88;151187.53;4918811;28;20222;-61
2023/09/18 01:16:11;;;;;;;7.97;3.60;;;;;;;20.49;86.50;151180.00;4928611;28;20256;-61
2023/09/18 01:18:39;;;;;;;7.03;3.30;;;;;;;20.48;86.30;151176.28;4940676;28;20244;-60
2023/09/18 01:21:05;;;;;;;8.50;2.53;;;;;;;20.48;86.58;151177.50;4944187;28;20702;-60
2023/09/18 01:23:33;;;;;;;6.83;2.80;;;;;;;20.43;87.76;151164.97;4925904;28;20243;-60
2023/09/18 01:26:00;;;;;;;10.77;3.40;;;;;;;20.47;90.99;151175.00;4928316;29;20228;-61
2023/09/18 01:28:26;;;;;;;10.47;3.80;;;;;;;20.44;90.94;151167.47;4924418;28;20704;-60
2023/09/18 01:31:18;;;;;;;8.20;3.73;;;;;;;20.40;93.12;151156.22;4926222;28;20242;-61
2023/09/18 01:33:47;;;;;;;10.40;3.57;;;;;;;20.37;92.81;151148.72;4929083;28;21191;-61
2023/09/18 01:36:15;;;;;;;7.83;3.37;;;;;;;20.34;92.30;151143.69;4929503;28;20276;-61
2023/09/18 01:38:44;;;;;;;7.13;2.47;;;;;;;21.21;77.23;151352.97;4925207;29;20235;-61
2023/09/18 01:41:11;;;;;;;9.23;2.50;;;;;;;21.59;72.34;151444.53;4927805;29;20599;-60
2023/09/18 01:43:38;;;;;;;14.80;2.50;;;;;;;22.02;68.82;151548.63;4925045;28;20240;-60
2023/09/18 01:46:05;;;;;;;9.20;2.70;;;;;;;22.33;67.48;151623.84;4929347;28;20565;-60
2023/09/18 01:48:32;;;;;;;7.93;2.30;;;;;;;22.51;65.37;151669.03;4940854;28;20225;-62
2023/09/18 01:50:59;;;;;;;6.37;2.50;;;;;;;22.63;64.75;151696.63;4920004;29;20231;-61
2023/09/18 01:53:26;;;;;;;8.40;2.10;;;;;;;22.82;64.29;151744.31;4941243;28;20264;-60
2023/09/18 01:56:19;;;;;;;11.30;2.53;;;;;;;22.89;64.78;151760.59;4927257;28;20367;-61
2023/09/18 01:58:46;;;;;;;8.60;2.50;;;;;;;23.07;63.62;151804.53;4927490;29;20578;-60
2023/09/18 02:01:12;;;;;;;9.20;2.67;;;;;;;23.09;64.95;151809.56;4921752;29;20771;-60
2023/09/18 02:03:41;;;;;;;6.20;2.43;;;;;;;23.00;64.79;151788.19;4926432;28;20236;-60
2023/09/18 02:06:08;;;;;;;4.27;2.63;;;;;;;22.87;66.69;151755.59;4930385;28;20581;-60
2023/09/18 02:08:35;;;;;;;6.47;2.63;;;;;;;22.83;67.29;151745.53;4926091;28;20280;-61
2023/09/18 02:11:02;;;;;;;4.83;2.30;;;;;;;22.76;66.56;151728.03;4919749;29;20221;-61
2023/09/18 02:13:56;;;;;;;5.80;2.50;;;;;;;22.67;66.93;151706.66;4920331;28;20336;-60
2023/09/18 02:16:23;;;;;;;7.17;2.60;;;;;;;22.72;65.82;151719.22;4915152;28;20229;-62
2023/09/18 02:18:50;;;;;;;8.50;2.57;;;;;;;22.70;66.71;151715.47;4928272;29;20233;-61
2023/09/18 02:21:21;;;;;;;7.20;2.47;;;;;;;22.60;69.65;151689.09;4926227;28;20248;-60
2023/09/18 02:23:50;;;;;;;13.60;4.03;;;;;;;22.49;72.93;151664.03;4924501;29;20224;-61
2023/09/18 02:26:16;;;;;;;6.70;2.40;;;;;;;22.36;74.63;151631.34;4928289;29;20222;-60
2023/09/18 02:28:43;;;;;;;9.30;2.63;;;;;;;22.16;74.57;151582.47;4926970;28;20232;-61
2023/09/18 02:31:11;;;;;;;8.80;2.53;;;;;;;22.06;76.86;151559.88;4928622;29;20678;-61
2023/09/18 02:33:38;;;;;;;11.73;3.00;;;;;;;21.79;84.42;151493.44;4924300;28;20234;-61
2023/09/18 02:36:05;;;;;;;7.33;2.97;;;;;;;21.52;86.29;151428.19;4923401;28;20721;-61
2023/09/18 02:38:31;;;;;;;9.97;2.70;;;;;;;21.36;89.76;151389.34;4924936;28;20231;-62
2023/09/18 02:40:59;;;;;;;7.30;3.00;;;;;;;21.28;86.01;151369.28;4918072;29;20239;-61
2023/09/18 02:43:26;;;;;;;12.37;3.30;;;;;;;21.08;86.92;151322.94;4923706;28;20223;-61
2023/09/18 02:45:59;;;;;;;4.50;2.90;;;;;;;20.97;88.84;151295.38;4942022;28;20314;-61
2023/09/18 02:48:27;;;;;;;11.20;2.90;;;;;;;20.92;88.58;151282.81;4925175;28;20247;-60
2023/09/18 02:51:00;;;;;;;9.87;3.37;;;;;;;20.90;87.40;151279.03;4927243;29;20592;-60
2023/09/18 02:53:27;;;;;;;8.87;3.13;;;;;;;21.00;84.12;151301.59;4923983;28;20303;-60
2023/09/18 02:56:00;;;;;;;8.90;2.87;;;;;;;21.01;83.92;151305.38;4943261;28;20535;-61
2023/09/18 02:58:28;;;;;;;7.83;3.00;;;;;;;21.06;82.39;151316.66;4913985;28;20247;-61
2023/09/18 03:04:07;;;;;;;8.13;3.20;;;;;;;21.23;81.61;151359.28;5666538;23;20381;-60
2023/09/18 03:06:34;;;;;;;8.63;3.30;;;;;;;21.24;81.12;151360.50;4928267;28;20318;-60
2023/09/18 03:09:00;;;;;;;10.70;3.20;;;;;;;21.34;80.25;151385.56;4923391;28;20235;-60
2023/09/18 03:11:28;;;;;;;9.63;3.03;;;;;;;21.36;79.92;151389.34;4915583;28;20226;-60
2023/09/18 03:13:55;;;;;;;13.23;3.43;;;;;;;21.52;78.36;151428.19;4931774;28;20249;-60
2023/09/18 03:16:22;;;;;;;10.60;3.10;;;;;;;21.54;80.24;151433.22;4929720;28;20256;-60
2023/09/18 03:18:49;;;;;;;6.17;3.13;;;;;;;21.44;79.40;151408.13;4915689;28;20674;-59
2023/09/18 03:21:17;;;;;;;21.20;2.80;;;;;;;21.39;80.84;151396.88;4932014;28;20231;-60
2023/09/18 03:23:43;;;;;;;22.60;4.43;;;;;;;20.89;90.74;151275.31;4914531;29;20333;-61
2023/09/18 03:26:10;;;;;;;19.67;4.07;;;;;;;20.41;98.12;151158.72;4931700;28;20924;-60
2023/09/18 03:28:37;;;;;;;19.70;4.80;;;;;;;20.10;100.00;151084.84;4915055;28;20501;-60
2023/09/18 03:31:05;;;;;;;14.03;4.77;;;;;;;19.72;100.00;150992.09;5151720;23;20256;-55
2023/09/18 03:33:32;;;;;;;13.30;4.23;;;;;;;19.70;100.00;150988.31;4939700;28;20242;-55
2023/09/18 03:35:59;;;;;;;19.13;4.00;;;;;;;19.57;100.00;150957.03;4944256;28;20244;-56
2023/09/18 03:38:30;;;;;;;16.13;3.93;;;;;;;19.54;100.00;150949.50;4956179;28;20234;-55
2023/09/18 03:41:00;;;;;;;20.80;4.50;;;;;;;19.51;100.00;150942.00;4932173;28;21021;-56
2023/09/18 03:43:27;;;;;;;16.70;3.77;;;;;;;19.43;100.00;150923.22;4929420;29;20605;-56
2023/09/18 03:46:07;;;;;;;13.80;3.67;;;;;;;19.37;100.00;150906.94;4927867;29;20254;-55
2023/09/18 03:48:40;;;;;;;10.93;3.87;;;;;;;19.33;100.00;150899.41;4923547;29;20686;-55
2023/09/18 03:51:08;;;;;;;15.20;3.03;;;;;;;19.24;100.00;150875.63;4928861;29;20228;-55
2023/09/18 03:53:36;;;;;;;10.53;2.47;;;;;;;19.25;100.00;150879.38;4924028;28;20319;-53
2023/09/18 03:56:03;;;;;;;9.33;2.40;;;;;;;19.16;100.00;150856.84;4927492;29;20284;-55
2023/09/18 03:58:30;;;;;;;17.10;2.60;;;;;;;19.00;100.00;150818.03;4925149;28;20232;-56
2023/09/18 04:00:59;;;;;;;13.53;2.53;;;;;;;18.96;100.00;150809.31;4937649;28;20236;-56
2023/09/18 04:03:26;;;;;;;10.77;2.33;;;;;;;18.95;100.00;150805.47;4928475;29;20858;-56
2023/09/18 04:06:20;;;;;;;8.03;2.00;;;;;;;18.89;100.00;150791.72;4926088;28;20230;-56
2023/09/18 04:08:48;;;;;;;12.93;3.07;;;;;;;18.90;100.00;150794.22;4925188;29;20637;-55
2023/09/18 04:11:14;;;;;;;9.50;2.57;;;;;;;18.76;100.00;150759.19;4928391;28;20229;-55
2023/09/18 04:13:41;;;;;;;13.20;2.50;;;;;;;18.69;100.00;150742.88;4924778;28;20231;-55
2023/09/18 04:16:08;;;;;;;16.70;2.40;;;;;;;18.65;100.00;150734.13;4928038;29;20275;-55
2023/09/18 04:18:34;;;;;;;10.50;2.10;;;;;;;18.60;100.00;150721.63;4925993;29;20235;-56
2023/09/18 04:21:01;;;;;;;12.07;2.07;;;;;;;18.57;100.00;150715.34;4926412;29;20239;-55
2023/09/18 04:23:28;;;;;;;10.10;2.30;;;;;;;18.51;100.00;150699.09;4924768;29;20236;-56
2023/09/18 04:26:01;;;;;;;5.63;1.70;;;;;;;18.57;100.00;150714.13;4942103;28;20705;-56
2023/09/18 04:28:28;;;;;;;8.23;1.63;;;;;;;18.57;100.00;150714.13;4926262;28;20229;-55
2023/09/18 04:31:00;;;;;;;7.15;2.00;;;;;;;18.65;100.00;150734.13;4925962;29;20457;-55
2023/09/18 04:33:28;;;;;;;7.67;2.33;;;;;;;18.66;100.00;150736.66;4923959;28;20241;-56
2023/09/18 04:36:00;;;;;;;6.60;1.97;;;;;;;18.60;100.00;150721.63;4926401;29;20669;-55
2023/09/18 04:38:26;;;;;;;7.73;1.90;;;;;;;18.51;100.00;150699.09;4923626;28;20705;-55
2023/09/18 04:41:01;;;;;;;7.87;1.90;;;;;;;18.49;100.00;150695.38;4925969;29;20243;-55
2023/09/18 04:43:34;;;;;;;6.63;1.23;;;;;;;18.55;100.00;150709.09;4923034;29;20255;-55
2023/09/18 04:46:04;;;;;;;3.73;1.47;;;;;;;18.64;100.00;150731.63;4926873;29;20244;-56
2023/09/18 04:48:30;;;;;;;6.20;1.30;;;;;;;18.68;100.00;150740.38;4942187;28;20263;-55
2023/09/18 04:51:00;;;;;;;9.60;1.30;;;;;;;18.71;100.00;150749.16;4943688;28;20233;-56
2023/09/18 04:53:28;;;;;;;3.20;0.90;;;;;;;18.71;100.00;150747.88;4928032;29;20232;-55
2023/09/18 04:56:01;;;;;;;9.23;1.30;;;;;;;18.79;100.00;150767.91;4929215;29;20243;-56
2023/09/18 04:58:27;;;;;;;5.10;1.23;;;;;;;18.81;100.00;150772.94;4925932;28;20241;-55
2023/09/18 05:01:01;;;;;;;8.07;0.77;;;;;;;18.98;100.00;150814.31;4944764;28;20252;-55
2023/09/18 05:03:29;;;;;;;3.73;1.10;;;;;;;19.00;100.00;150818.03;4926710;29;20228;-55
2023/09/18 05:06:00;;;;;;;4.60;1.00;;;;;;;19.12;100.00;150848.09;4933419;28;20264;-56
2023/09/18 05:08:29;;;;;;;4.90;0.80;;;;;;;19.20;99.61;150866.84;4927635;28;20717;-55
2023/09/18 05:11:01;;;;;;;1.87;0.70;;;;;;;19.31;100.00;150894.41;4930211;28;20299;-55
2023/09/18 05:13:28;;;;;;;4.37;1.07;;;;;;;19.26;100.00;150881.88;4927456;28;20454;-55
2023/09/18 05:16:00;;;;;;;4.20;0.70;;;;;;;19.29;99.13;150888.16;4930727;29;20315;-55
2023/09/18 05:18:27;;;;;;;4.33;0.63;;;;;;;19.32;100.00;150896.91;4927688;28;20236;-55
2023/09/18 05:20:59;;;;;;;7.63;0.93;;;;;;;19.44;95.60;150925.72;4929762;28;20782;-56
2023/09/18 05:23:31;;;;;;;3.40;0.60;;;;;;;19.39;98.26;150913.22;4925763;28;20251;-56
2023/09/18 05:26:01;;;;;;;3.83;0.70;;;;;;;19.44;96.28;150924.47;4929339;28;20250;-56
2023/09/18 05:28:28;;;;;;;2.30;0.70;;;;;;;19.42;97.01;150920.72;4927248;28;20233;-55
2023/09/18 05:30:59;;;;;;;4.10;0.60;;;;;;;19.38;99.08;150909.44;4930029;28;20241;-56
2023/09/18 05:33:26;;;;;;;4.20;0.73;;;;;;;19.45;95.36;150926.97;4926559;28;20230;-56
2023/09/18 05:36:17;;;;;;;5.33;0.80;;;;;;;19.46;99.13;150929.47;4926896;28;20826;-56
2023/09/18 05:38:44;;;;;;;2.67;0.63;;;;;;;19.59;91.35;150962.03;4929626;29;20248;-54
2023/09/18 05:41:12;;;;;;;3.07;0.60;;;;;;;19.62;93.93;150968.25;4929661;29;20237;-55
2023/09/18 05:43:38;;;;;;;3.27;0.97;;;;;;;19.71;95.44;150989.59;4926578;28;20240;-56
2023/09/18 05:46:05;;;;;;;6.03;1.10;;;;;;;20.04;88.58;151071.03;4929053;29;20230;-55
2023/09/18 05:48:32;;;;;;;4.00;0.70;;;;;;;20.07;87.13;151077.31;4926748;28;20248;-56
2023/09/18 05:50:59;;;;;;;3.93;0.90;;;;;;;20.06;87.75;151074.81;4944465;28;20250;-56
2023/09/18 05:53:26;;;;;;;4.03;1.50;;;;;;;20.10;86.12;151084.84;4925783;29;20238;-55
2023/09/18 05:56:19;;;;;;;4.27;0.97;;;;;;;20.10;87.23;151084.84;4928471;28;20279;-56
2023/09/18 05:58:45;;;;;;;5.93;0.90;;;;;;;20.05;89.16;151072.31;4926458;28;20722;-56
2023/09/18 06:01:12;;;;;;;2.30;1.00;;;;;;;20.10;89.60;151084.84;4929583;29;20241;-56
2023/09/18 06:03:38;;;;;;;3.20;1.00;;;;;;;20.15;84.43;151097.31;4926215;28;20259;-56
2023/09/18 06:06:06;;;;;;;4.93;1.40;;;;;;;20.37;83.24;151149.94;4928266;29;20255;-56
2023/09/18 06:08:33;;;;;;;5.97;0.90;;;;;;;20.38;83.51;151151.22;4926526;28;20231;-56
2023/09/18 06:10:59;;;;;;;5.13;1.10;;;;;;;20.47;81.95;151173.78;4929060;28;20233;-55
2023/09/18 06:13:28;;;;;;;2.50;0.73;;;;;;;20.34;83.63;151142.41;4926893;28;20771;-55
2023/09/18 06:15:59;;;;;;;6.63;1.33;;;;;;;20.34;82.57;151142.41;4929721;28;20226;-56
2023/09/18 06:18:26;;;;;;;7.20;0.97;;;;;;;20.32;84.78;151138.69;4927779;28;20224;-56
2023/09/18 06:21:17;;;;;;;7.13;0.80;;;;;;;20.20;85.98;151108.63;4928740;28;20844;-55
2023/09/18 06:23:44;;;;;;;4.20;1.17;;;;;;;20.08;91.23;151079.81;4925443;28;20236;-54
2023/09/18 06:26:10;;;;;;;4.13;0.93;;;;;;;19.89;92.55;151034.72;4936345;29;20250;-56
2023/09/18 06:28:39;;;;;;;2.97;1.10;;;;;;;19.79;94.31;151008.34;4926165;28;20240;-56
2023/09/18 06:31:05;;;;;;;8.07;1.00;;;;;;;19.68;95.00;150983.28;4940996;28;20240;-56
2023/09/18 06:33:32;;;;;;;6.37;0.80;;;;;;;19.66;93.88;150977.06;4916216;28;20236;-56
2023/09/18 06:36:00;;;;;;;7.33;0.87;;;;;;;19.70;89.40;150987.06;4928580;28;20237;-56
2023/09/18 06:38:26;;;;;;;3.33;0.80;;;;;;;19.69;91.15;150984.56;4926328;28;20228;-56
2023/09/18 06:40:59;;;;;;;3.20;0.70;;;;;;;19.72;91.84;150992.09;4928506;28;20232;-56
2023/09/18 06:43:26;;;;;;;4.60;0.90;;;;;;;19.70;94.87;150988.31;4926092;28;20239;-56
2023/09/18 06:46:19;;;;;;;3.77;1.03;;;;;;;19.61;93.68;150965.75;4927019;28;20392;-57
2023/09/18 06:48:49;;;;;;;3.87;0.87;;;;;;;19.67;90.68;150979.56;4924623;29;20237;-55
2023/09/18 06:51:16;;;;;;;4.17;0.87;;;;;;;19.57;94.14;150957.03;4929513;29;20269;-56
2023/09/18 06:53:43;;;;;;;2.47;1.00;;;;;;;19.60;93.94;150964.53;4925673;28;20229;-56
2023/09/18 06:56:10;;;;;;;3.47;0.80;;;;;;;19.63;91.34;150970.78;4940348;28;20237;-56
2023/09/18 06:58:37;;;;;;;4.43;0.90;;;;;;;19.67;92.33;150980.78;4924575;29;20238;-56
2023/09/18 07:01:06;;;;;;;4.80;0.73;;;;;;;19.70;90.64;150988.31;4927348;28;20255;-56
2023/09/18 07:03:36;;;;;;;2.13;0.80;;;;;;;19.61;92.10;150967.03;4925943;29;20636;-56
2023/09/18 07:06:04;;;;;;;2.77;0.67;;;;;;;19.69;91.92;150984.56;4928974;28;20647;-56
2023/09/18 07:08:30;;;;;;;3.87;0.93;;;;;;;19.65;93.16;150974.56;4925830;29;20283;-56
2023/09/18 07:10:59;;;;;;;4.77;0.60;;;;;;;19.70;88.87;150987.06;4938830;28;20233;-56
2023/09/18 07:13:26;;;;;;;1.57;0.60;;;;;;;19.74;88.86;150998.31;4925062;29;20592;-56
2023/09/18 07:16:18;;;;;;;5.87;0.80;;;;;;;19.65;91.04;150975.78;4925917;28;20227;-56
2023/09/18 07:18:46;;;;;;;2.80;0.67;;;;;;;19.64;92.12;150972.06;4927009;29;20366;-56
2023/09/18 07:21:12;;;;;;;2.20;0.70;;;;;;;19.52;91.66;150943.28;4928181;28;20580;-56
2023/09/18 07:23:41;;;;;;;2.47;1.00;;;;;;;19.51;90.50;150942.00;4925454;29;20564;-54
2023/09/18 07:26:07;;;;;;;5.83;1.23;;;;;;;19.54;90.14;150948.28;4928694;28;20786;-56
2023/09/18 07:28:34;;;;;;;3.97;0.67;;;;;;;19.47;92.77;150933.25;4924946;28;20232;-55
2023/09/18 07:31:06;;;;;;;3.77;0.83;;;;;;;19.42;92.65;150920.72;4928072;28;20243;-54
2023/09/18 07:33:32;;;;;;;4.80;0.77;;;;;;;19.44;94.12;150924.47;4925123;28;20232;-55
2023/09/18 07:36:01;;;;;;;3.03;0.73;;;;;;;19.40;95.23;150915.72;4928910;29;20721;-56
2023/09/18 07:38:28;;;;;;;3.47;1.00;;;;;;;19.35;95.32;150901.91;4925520;28;20233;-54
2023/09/18 07:40:59;;;;;;;3.43;0.90;;;;;;;19.35;97.08;150903.19;4927213;29;20228;-56
2023/09/18 07:43:26;;;;;;;2.80;0.90;;;;;;;19.32;95.81;150895.69;4924723;28;20225;-56
2023/09/18 07:46:18;;;;;;;3.17;0.73;;;;;;;19.37;94.43;150906.94;4926200;28;20243;-56
2023/09/18 07:48:44;;;;;;;4.73;0.90;;;;;;;19.41;94.69;150916.94;4926056;29;20247;-56
2023/09/18 07:51:13;;;;;;;4.83;1.13;;;;;;;19.32;96.56;150896.91;4927798;29;20225;-56
2023/09/18 07:53:40;;;;;;;5.47;1.13;;;;;;;19.32;97.57;150895.69;4924418;28;20238;-56
2023/09/18 07:56:07;;;;;;;5.60;1.00;;;;;;;19.31;98.40;150894.41;4928598;29;20235;-55
2023/09/18 07:58:38;;;;;;;6.10;1.20;;;;;;;19.36;97.05;150905.69;4925384;28;20288;-55
2023/09/18 08:01:05;;;;;;;5.23;1.13;;;;;;;19.41;95.96;150916.94;4927947;28;20330;-54
2023/09/18 08:03:33;;;;;;;2.67;1.03;;;;;;;19.48;97.49;150934.47;4925066;28;20319;-56
2023/09/18 08:05:59;;;;;;;8.57;1.23;;;;;;;19.54;96.68;150948.28;4928223;28;20239;-55
2023/09/18 08:08:30;;;;;;;7.57;0.90;;;;;;;19.45;98.04;150926.97;4924926;28;20248;-55
2023/09/18 08:11:01;;;;;;;6.47;1.20;;;;;;;19.51;97.05;150942.00;4927775;28;20242;-55
2023/09/18 08:13:29;;;;;;;3.80;1.20;;;;;;;19.42;100.00;150920.72;4925784;28;20240;-56
2023/09/18 08:15:59;;;;;;;6.03;1.03;;;;;;;19.41;100.00;150916.94;4927009;29;20292;-56
2023/09/18 08:18:27;;;;;;;4.30;0.97;;;;;;;19.57;93.14;150957.03;4925295;28;20225;-56
2023/09/18 08:21:00;;;;;;;2.93;0.83;;;;;;;19.58;92.33;150959.53;4929289;28;20235;-56
2023/09/18 08:23:28;;;;;;;4.10;0.97;;;;;;;19.68;92.28;150983.28;4928453;29;20244;-54
2023/09/18 08:25:59;;;;;;;5.67;1.07;;;;;;;19.81;89.62;151014.63;4932259;28;20242;-55
2023/09/18 08:28:26;;;;;;;4.50;1.30;;;;;;;19.87;89.50;151029.66;4929009;28;20224;-55
2023/09/18 08:31:17;;;;;;;3.27;0.80;;;;;;;20.09;88.40;151081.06;4930267;28;20322;-55
2023/09/18 08:33:44;;;;;;;4.03;0.90;;;;;;;20.08;87.95;151079.81;4928391;29;20251;-55
2023/09/18 08:36:11;;;;;;;3.13;0.70;;;;;;;20.32;85.85;151138.69;4930566;29;20572;-56
2023/09/18 08:38:39;;;;;;;1.67;0.80;;;;;;;20.53;84.34;151188.81;4928325;28;20247;-56
2023/09/18 08:41:08;;;;;;;2.57;0.70;;;;;;;20.59;84.83;151202.56;4931568;29;20245;-55
2023/09/18 08:43:36;;;;;;;3.70;0.73;;;;;;;20.46;82.35;151171.25;4927428;28;20288;-56
2023/09/18 08:46:04;;;;;;;5.73;0.90;;;;;;;20.57;82.42;151197.56;4930240;29;20307;-56
2023/09/18 08:48:34;;;;;;;6.90;1.20;;;;;;;20.41;83.93;151159.97;4927756;29;20702;-56
2023/09/18 08:51:03;;;;;;;3.40;1.00;;;;;;;20.50;82.42;151182.53;4929117;29;20318;-56
2023/09/18 08:53:30;;;;;;;3.80;0.80;;;;;;;20.35;81.24;151144.94;4927984;28;20332;-56
2023/09/18 08:56:02;;;;;;;1.73;0.70;;;;;;;20.37;80.69;151148.72;4930741;28;20701;-56
2023/09/18 08:58:32;;;;;;;4.27;0.53;;;;;;;20.29;81.82;151131.16;4927803;28;20237;-56
2023/09/18 09:01:03;;;;;;;4.23;0.80;;;;;;;20.34;81.47;151143.69;4930590;28;20236;-56
2023/09/18 09:03:30;;;;;;;3.00;0.70;;;;;;;20.32;80.63;151137.41;4928383;28;20357;-53
2023/09/18 09:06:00;;;;;;;1.73;0.70;;;;;;;20.34;81.61;151143.69;4931396;28;20245;-56
2023/09/18 09:08:28;;;;;;;4.67;0.63;;;;;;;20.37;79.83;151149.94;4928073;28;20289;-54
2023/09/18 09:11:01;;;;;;;4.13;0.77;;;;;;;20.38;77.00;151151.22;4932430;29;20238;-56
2023/09/18 09:13:27;;;;;;;2.53;0.80;;;;;;;20.46;75.22;151171.25;4926758;28;20236;-56
2023/09/18 09:16:00;;;;;;;3.30;0.70;;;;;;;20.52;76.33;151185.03;4929781;28;20704;-57
2023/09/18 09:18:28;;;;;;;2.17;0.90;;;;;;;20.49;79.20;151180.00;4938904;28;20596;-56
2023/09/18 09:21:04;;;;;;;3.53;0.87;;;;;;;20.51;79.76;151183.78;4929757;28;20625;-56
2023/09/18 09:23:48;;;;;;;2.23;0.80;;;;;;;20.57;79.43;151197.56;4924940;29;20228;-56
2023/09/18 09:26:18;;;;;;;3.87;0.60;;;;;;;20.64;80.70;151215.09;4928861;28;20240;-55
2023/09/18 09:28:46;;;;;;;2.73;0.83;;;;;;;20.67;80.52;151221.38;4926594;28;20702;-56
2023/09/18 09:31:24;;;;;;;4.03;0.87;;;;;;;20.67;78.71;151222.63;4928179;28;20241;-56
2023/09/18 09:33:53;;;;;;;4.00;0.70;;;;;;;20.76;77.63;151245.19;4926991;29;20235;-56
2023/09/18 09:36:20;;;;;;;2.87;0.60;;;;;;;20.82;78.07;151257.75;4926857;28;20240;-56
2023/09/18 09:38:46;;;;;;;2.53;0.70;;;;;;;20.86;76.94;151267.78;4929499;28;20234;-56
2023/09/18 09:41:15;;;;;;;2.33;0.73;;;;;;;20.80;76.54;151253.97;4925309;28;20624;-56
2023/09/18 09:43:45;;;;;;;4.37;0.80;;;;;;;20.88;75.73;151274.03;4933751;28;20308;-56
2023/09/18 09:46:16;;;;;;;2.17;0.70;;;;;;;20.86;75.84;151269.03;4926789;28;20270;-55
2023/09/18 09:48:59;;;;;;;1.50;0.50;;;;;;;20.97;77.43;151295.38;4924311;29;20239;-57
2023/09/18 09:51:25;;;;;;;2.67;0.63;;;;;;;20.87;77.78;151271.53;4924944;28;20230;-56
2023/09/18 09:53:52;;;;;;;4.33;0.73;;;;;;;21.02;75.39;151307.91;4928650;29;20254;-57
2023/09/18 09:56:21;;;;;;;4.43;1.10;;;;;;;21.14;72.88;151336.69;4926538;28;20234;-56
2023/09/18 09:59:03;;;;;;;2.83;0.63;;;;;;;20.99;76.06;151299.09;4929639;29;20237;-56
2023/09/18 10:01:32;;;;;;;1.93;0.70;;;;;;;21.01;74.84;151304.09;4925873;28;20339;-56
2023/09/18 10:04:01;;;;;;;4.00;0.70;;;;;;;20.93;74.78;151285.34;4929232;29;20235;-56
2023/09/18 10:06:30;;;;;;;3.13;0.70;;;;;;;21.16;73.45;151341.72;4927453;28;20284;-56
2023/09/18 10:08:57;;;;;;;1.13;0.63;;;;;;;21.36;72.80;151389.34;4929182;29;20242;-56
2023/09/18 10:11:26;;;;;;;3.77;0.97;;;;;;;21.16;72.09;151341.72;4927038;28;20226;-57
2023/09/18 10:13:58;;;;;;;3.63;0.63;;;;;;;21.26;71.99;151364.28;4929417;29;20243;-56
2023/09/18 10:16:31;;;;;;;1.73;0.53;;;;;;;21.47;72.03;151415.66;4925554;28;20324;-57
2023/09/18 10:19:10;;;;;;;1.87;0.63;;;;;;;21.31;71.74;151378.03;4929549;28;20243;-57
2023/09/18 10:21:42;;;;;;;2.57;0.60;;;;;;;21.34;71.44;151385.56;4936686;28;20230;-56
2023/09/18 10:24:18;;;;;;;4.50;1.00;;;;;;;21.64;71.69;151458.34;4928419;28;20247;-56
2023/09/18 10:26:51;;;;;;;2.10;0.60;;;;;;;21.61;72.73;151450.75;4925798;28;20233;-56
2023/09/18 10:29:20;;;;;;;4.73;0.80;;;;;;;21.65;70.04;151459.63;4928543;28;20233;-56
2023/09/18 10:31:50;;;;;;;2.70;0.73;;;;;;;21.88;70.77;151514.75;4925770;28;20337;-56
2023/09/18 10:34:19;;;;;;;2.17;0.80;;;;;;;21.89;70.91;151517.25;4927984;28;20234;-56
2023/09/18 10:36:48;;;;;;;4.33;0.70;;;;;;;21.96;67.92;151536.09;4925197;28;20240;-56
2023/09/18 10:39:19;;;;;;;3.93;0.70;;;;;;;21.92;69.29;151526.06;4928624;28;20227;-56
2023/09/18 10:41:48;;;;;;;2.27;0.50;;;;;;;22.19;67.43;151591.28;4925309;28;20395;-56
2023/09/18 10:44:16;;;;;;;1.47;0.50;;;;;;;22.21;68.75;151596.28;4927329;29;20236;-56
2023/09/18 10:46:43;;;;;;;0.97;0.40;;;;;;;22.20;68.03;151592.50;4924548;28;20235;-56
2023/09/18 10:49:11;;;;;;;1.73;0.60;;;;;;;22.38;68.80;151637.66;4929436;28;20241;-55
2023/09/18 10:51:42;;;;;;;3.27;0.60;;;;;;;22.75;66.43;151726.75;4929617;28;20251;-56
2023/09/18 10:54:09;;;;;;;1.47;0.40;;;;;;;22.49;66.02;151664.03;4928584;29;20242;-57
2023/09/18 10:56:35;;;;;;;2.67;0.70;;;;;;;22.53;67.30;151674.06;4924445;28;20232;-57
2023/09/18 10:59:04;;;;;;;3.27;0.60;;;;;;;22.89;65.52;151760.59;4928197;29;20248;-56
2023/09/18 11:01:31;;;;;;;3.70;0.63;;;;;;;22.99;64.25;151784.47;4921182;28;20572;-57
2023/09/18 11:04:01;;;;;;;1.80;0.47;;;;;;;22.58;63.07;151684.09;4921414;29;20315;-56
2023/09/18 11:06:29;;;;;;;3.80;0.90;;;;;;;22.41;62.53;151645.19;4917574;28;20239;-55
2023/09/18 11:09:03;;;;;;;3.33;0.80;;;;;;;22.97;62.38;151780.69;4903591;28;20775;-56
2023/09/18 11:11:32;;;;;;;1.90;0.60;;;;;;;23.25;59.38;151847.25;4919677;28;20953;-56
2023/09/18 11:14:04;;;;;;;2.77;0.90;;;;;;;22.88;60.21;151756.84;4924916;28;20234;-58
2023/09/18 11:16:38;;;;;;;1.90;0.60;;;;;;;23.33;57.49;151867.28;4901547;28;20814;-57
2023/09/18 11:19:15;;;;;;;3.13;0.60;;;;;;;23.35;57.80;151871.06;4936158;28;20241;-56
2023/09/18 11:21:47;;;;;;;1.40;0.57;;;;;;;23.71;58.01;151958.94;4902786;28;20263;-57
2023/09/18 11:24:19;;;;;;;2.93;0.80;;;;;;;23.47;59.76;151899.91;4921917;28;20257;-57
2023/09/18 11:26:51;;;;;;;3.63;0.70;;;;;;;23.81;59.24;151982.75;4865613;28;20248;-57
2023/09/18 11:29:23;;;;;;;1.20;0.67;;;;;;;22.84;59.77;151749.34;4889861;28;21527;-57
2023/09/18 11:31:53;;;;;;;2.33;0.80;;;;;;;22.56;59.51;151681.59;4921101;28;20283;-57
2023/09/18 11:34:26;;;;;;;4.10;0.70;;;;;;;22.37;60.82;151635.16;4921194;28;20247;-57
2023/09/18 11:36:56;;;;;;;4.27;0.90;;;;;;;22.87;60.69;151755.59;4924073;28;20638;-56